Terminal Aerodrome Forecast
Issued by NWS Grand Forks, ND

Home | Current Version | Previous Version | Text Only | Print | Product List | Glossary Off
Versions: 1 2 3 4 5 6 7 8 9 10 11 12 13 14 15 16 17 18 19 20

013
FTUS43 KFGF 271730
TAFGFK
TAF
KGFK 271730Z 2718/2818 VRB03KT 1 1/2SM BR OVC003
     FM280100 VRB04KT 2SM BR OVC003
     FM281700 04006KT P6SM BKN008=

USA.gov is the U.S. government's official web portal to all federal, state and local government web resources and services.